sensor_id;sensor_type;location;lat;lon;timestamp;pressure;altitude;pressure_sealevel;temperature;humidity
69574;BME280;62840;52.366;5.980;2023-02-20T00:00:54;102377.53;;;6.31;75.43
69574;BME280;62840;52.366;5.980;2023-02-20T00:03:20;102372.13;;;6.34;75.53
69574;BME280;62840;52.366;5.980;2023-02-20T00:05:46;102361.38;;;6.37;75.47
69574;BME280;62840;52.366;5.980;2023-02-20T00:08:11;102361.34;;;6.39;75.69
69574;BME280;62840;52.366;5.980;2023-02-20T00:10:37;102368.28;;;6.41;75.46
69574;BME280;62840;52.366;5.980;2023-02-20T00:13:03;102361.16;;;6.43;75.37
69574;BME280;62840;52.366;5.980;2023-02-20T00:15:29;102351.41;;;6.44;75.28
69574;BME280;62840;52.366;5.980;2023-02-20T00:17:57;102355.75;;;6.45;75.33
69574;BME280;62840;52.366;5.980;2023-02-20T00:20:24;102364.47;;;6.48;75.47
69574;BME280;62840;52.366;5.980;2023-02-20T00:22:51;102334.25;;;6.53;75.32
69574;BME280;62840;52.366;5.980;2023-02-20T00:25:18;102336.81;;;6.54;75.49
69574;BME280;62840;52.366;5.980;2023-02-20T00:27:45;102316.50;;;6.55;75.30
69574;BME280;62840;52.366;5.980;2023-02-20T00:30:15;102331.47;;;6.56;75.17
69574;BME280;62840;52.366;5.980;2023-02-20T00:32:42;102335.88;;;6.57;75.46
69574;BME280;62840;52.366;5.980;2023-02-20T00:35:11;102338.44;;;6.58;75.34
69574;BME280;62840;52.366;5.980;2023-02-20T00:37:38;102335.78;;;6.58;75.31
69574;BME280;62840;52.366;5.980;2023-02-20T00:40:05;102342.72;;;6.61;75.37
69574;BME280;62840;52.366;5.980;2023-02-20T00:42:33;102336.53;;;6.62;75.48
69574;BME280;62840;52.366;5.980;2023-02-20T00:44:59;102332.81;;;6.66;75.29
69574;BME280;62840;52.366;5.980;2023-02-20T00:47:25;102322.13;;;6.67;75.45
69574;BME280;62840;52.366;5.980;2023-02-20T00:49:51;102308.81;;;6.69;75.25
69574;BME280;62840;52.366;5.980;2023-02-20T00:52:19;102303.38;;;6.72;75.44
69574;BME280;62840;52.366;5.980;2023-02-20T00:54:45;102303.38;;;6.72;75.19
69574;BME280;62840;52.366;5.980;2023-02-20T00:57:11;102293.56;;;6.74;75.27
69574;BME280;62840;52.366;5.980;2023-02-20T00:59:37;102296.09;;;6.77;75.03
69574;BME280;62840;52.366;5.980;2023-02-20T01:02:03;102285.34;;;6.80;75.26
69574;BME280;62840;52.366;5.980;2023-02-20T01:04:29;102274.69;;;6.82;75.33
69574;BME280;62840;52.366;5.980;2023-02-20T01:06:55;102269.31;;;6.83;75.05
69574;BME280;62840;52.366;5.980;2023-02-20T01:09:23;102260.44;;;6.84;75.06
69574;BME280;62840;52.366;5.980;2023-02-20T01:11:49;102256.84;;;6.85;75.13
69574;BME280;62840;52.366;5.980;2023-02-20T01:14:15;102247.97;;;6.86;75.10
69574;BME280;62840;52.366;5.980;2023-02-20T01:16:43;102242.66;;;6.86;75.10
69574;BME280;62840;52.366;5.980;2023-02-20T01:19:10;102240.81;;;6.88;75.03
69574;BME280;62840;52.366;5.980;2023-02-20T01:21:35;102234.56;;;6.89;75.07
69574;BME280;62840;52.366;5.980;2023-02-20T01:24:01;102224.91;;;6.88;75.11
69574;BME280;62840;52.366;5.980;2023-02-20T01:26:29;102219.72;;;6.85;75.12
69574;BME280;62840;52.366;5.980;2023-02-20T01:28:55;102215.56;;;6.80;75.05
69574;BME280;62840;52.366;5.980;2023-02-20T01:31:21;102226.88;;;6.83;74.97
69574;BME280;62840;52.366;5.980;2023-02-20T01:33:47;102226.88;;;6.83;74.97
69574;BME280;62840;52.366;5.980;2023-02-20T01:36:13;102226.16;;;6.80;75.10
69574;BME280;62840;52.366;5.980;2023-02-20T01:38:39;102231.53;;;6.78;75.20
69574;BME280;62840;52.366;5.980;2023-02-20T01:41:07;102235.13;;;6.77;75.19
69574;BME280;62840;52.366;5.980;2023-02-20T01:43:36;102230.72;;;6.76;75.13
69574;BME280;62840;52.366;5.980;2023-02-20T01:46:24;102228.16;;;6.75;75.08
69574;BME280;62840;52.366;5.980;2023-02-20T01:49:12;102210.69;;;6.70;75.08
69574;BME280;62840;52.366;5.980;2023-02-20T01:51:45;102212.44;;;6.70;75.02
69574;BME280;62840;52.366;5.980;2023-02-20T01:54:16;102207.22;;;6.68;74.88
69574;BME280;62840;52.366;5.980;2023-02-20T01:56:45;102204.63;;;6.67;75.17
69574;BME280;62840;52.366;5.980;2023-02-20T01:59:16;102192.31;;;6.66;74.92
69574;BME280;62840;52.366;5.980;2023-02-20T02:01:44;102185.28;;;6.65;75.08
69574;BME280;62840;52.366;5.980;2023-02-20T02:04:11;102180.91;;;6.64;75.02
69574;BME280;62840;52.366;5.980;2023-02-20T02:06:40;102169.38;;;6.65;75.16
69574;BME280;62840;52.366;5.980;2023-02-20T02:09:15;102172.13;;;6.63;74.91
69574;BME280;62840;52.366;5.980;2023-02-20T02:11:48;102171.22;;;6.63;75.01
69574;BME280;62840;52.366;5.980;2023-02-20T02:14:17;102165.94;;;6.63;75.36
69574;BME280;62840;52.366;5.980;2023-02-20T02:16:52;102172.97;;;6.64;75.17
69574;BME280;62840;52.366;5.980;2023-02-20T02:19:55;102168.47;;;6.66;75.20
69574;BME280;62840;52.366;5.980;2023-02-20T02:26:39;102157.97;;;6.63;75.21
69574;BME280;62840;52.366;5.980;2023-02-20T02:29:55;102147.38;;;6.63;75.38
69574;BME280;62840;52.366;5.980;2023-02-20T02:32:56;102145.59;;;6.63;75.49
69574;BME280;62840;52.366;5.980;2023-02-20T02:35:57;102155.31;;;6.63;75.40
69574;BME280;62840;52.366;5.980;2023-02-20T02:38:44;102149.22;;;6.61;75.49
69574;BME280;62840;52.366;5.980;2023-02-20T02:41:21;102147.47;;;6.61;75.49
69574;BME280;62840;52.366;5.980;2023-02-20T02:43:59;102137.84;;;6.59;75.44
69574;BME280;62840;52.366;5.980;2023-02-20T02:46:38;102134.31;;;6.58;75.51
69574;BME280;62840;52.366;5.980;2023-02-20T02:49:13;102137.84;;;6.59;75.71
69574;BME280;62840;52.366;5.980;2023-02-20T02:51:47;102127.22;;;6.59;75.58
69574;BME280;62840;52.366;5.980;2023-02-20T02:54:19;102129.13;;;6.57;75.48
69574;BME280;62840;52.366;5.980;2023-02-20T02:56:46;102131.84;;;6.55;75.63
69574;BME280;62840;52.366;5.980;2023-02-20T02:59:15;102119.50;;;6.54;75.64
69574;BME280;62840;52.366;5.980;2023-02-20T03:01:48;102120.22;;;6.58;75.68
69574;BME280;62840;52.366;5.980;2023-02-20T03:04:18;102121.06;;;6.58;75.88
69574;BME280;62840;52.366;5.980;2023-02-20T03:06:49;102116.63;;;6.59;76.02
69574;BME280;62840;52.366;5.980;2023-02-20T03:09:23;102106.81;;;6.61;75.72
69574;BME280;62840;52.366;5.980;2023-02-20T03:11:54;102104.16;;;6.61;75.88
69574;BME280;62840;52.366;5.980;2023-02-20T03:14:27;102109.34;;;6.64;75.91
69574;BME280;62840;52.366;5.980;2023-02-20T03:17:02;102121.75;;;6.63;75.87
69574;BME280;62840;52.366;5.980;2023-02-20T03:19:38;102109.19;;;6.67;76.08
69574;BME280;62840;52.366;5.980;2023-02-20T03:22:13;102107.34;;;6.69;75.96
69574;BME280;62840;52.366;5.980;2023-02-20T03:24:45;102111.63;;;6.71;75.91
69574;BME280;62840;52.366;5.980;2023-02-20T03:27:14;102123.81;;;6.76;76.07
69574;BME280;62840;52.366;5.980;2023-02-20T03:29:40;102110.50;;;6.77;76.12
69574;BME280;62840;52.366;5.980;2023-02-20T03:32:08;102105.06;;;6.80;76.10
69574;BME280;62840;52.366;5.980;2023-02-20T03:34:38;102107.53;;;6.83;75.95
69574;BME280;62840;52.366;5.980;2023-02-20T03:37:12;102115.38;;;6.86;76.00
69574;BME280;62840;52.366;5.980;2023-02-20T03:39:46;102106.47;;;6.87;76.08
69574;BME280;62840;52.366;5.980;2023-02-20T03:42:18;102102.91;;;6.88;75.92
69574;BME280;62840;52.366;5.980;2023-02-20T03:44:47;102098.31;;;6.92;75.98
69574;BME280;62840;52.366;5.980;2023-02-20T03:47:14;102109.78;;;6.92;76.16
69574;BME280;62840;52.366;5.980;2023-02-20T03:49:45;102102.59;;;6.95;76.12
69574;BME280;62840;52.366;5.980;2023-02-20T03:52:17;102100.75;;;6.97;76.17
69574;BME280;62840;52.366;5.980;2023-02-20T03:54:43;102100.63;;;7.00;76.17
69574;BME280;62840;52.366;5.980;2023-02-20T03:57:11;102105.75;;;7.03;76.30
69574;BME280;62840;52.366;5.980;2023-02-20T03:59:42;102103.91;;;7.05;76.08
69574;BME280;62840;52.366;5.980;2023-02-20T04:02:18;102093.13;;;7.08;76.25
69574;BME280;62840;52.366;5.980;2023-02-20T04:04:51;102088.63;;;7.10;76.11
69574;BME280;62840;52.366;5.980;2023-02-20T04:07:26;102087.69;;;7.11;76.15
69574;BME280;62840;52.366;5.980;2023-02-20T04:09:59;102086.75;;;7.12;76.22
69574;BME280;62840;52.366;5.980;2023-02-20T04:12:30;102080.53;;;7.13;76.23
69574;BME280;62840;52.366;5.980;2023-02-20T04:15:02;102078.66;;;7.15;76.45
69574;BME280;62840;52.366;5.980;2023-02-20T04:17:34;102066.16;;;7.17;76.35
69574;BME280;62840;52.366;5.980;2023-02-20T04:20:05;102062.59;;;7.18;76.34
69574;BME280;62840;52.366;5.980;2023-02-20T04:22:37;102065.06;;;7.21;76.30
69574;BME280;62840;52.366;5.980;2023-02-20T04:25:12;102064.16;;;7.22;76.32
69574;BME280;62840;52.366;5.980;2023-02-20T04:27:45;102064.00;;;7.25;76.23
69574;BME280;62840;52.366;5.980;2023-02-20T04:30:12;102062.13;;;7.27;76.39
69574;BME280;62840;52.366;5.980;2023-02-20T04:32:38;102059.41;;;7.29;76.44
69574;BME280;62840;52.366;5.980;2023-02-20T04:35:04;102053.09;;;7.31;76.23
69574;BME280;62840;52.366;5.980;2023-02-20T04:37:33;102066.25;;;7.33;76.28
69574;BME280;62840;52.366;5.980;2023-02-20T04:39:59;102057.38;;;7.34;76.38
69574;BME280;62840;52.366;5.980;2023-02-20T04:42:25;102063.41;;;7.38;76.36
69574;BME280;62840;52.366;5.980;2023-02-20T04:44:51;102057.97;;;7.41;76.34
69574;BME280;62840;52.366;5.980;2023-02-20T04:47:17;102044.53;;;7.44;76.35
69574;BME280;62840;52.366;5.980;2023-02-20T04:49:43;102061.25;;;7.46;76.23
69574;BME280;62840;52.366;5.980;2023-02-20T04:52:09;102062.81;;;7.50;76.27
69574;BME280;62840;52.366;5.980;2023-02-20T04:54:37;102048.59;;;7.51;76.45
69574;BME280;62840;52.366;5.980;2023-02-20T04:57:03;102046.72;;;7.53;76.22
69574;BME280;62840;52.366;5.980;2023-02-20T04:59:29;102044.84;;;7.55;76.28
69574;BME280;62840;52.366;5.980;2023-02-20T05:01:54;102050.94;;;7.57;76.24
69574;BME280;62840;52.366;5.980;2023-02-20T05:04:21;102049.16;;;7.58;76.38
69574;BME280;62840;52.366;5.980;2023-02-20T05:06:49;102061.50;;;7.59;76.37
69574;BME280;62840;52.366;5.980;2023-02-20T05:09:16;102065.00;;;7.59;76.31
69574;BME280;62840;52.366;5.980;2023-02-20T05:11:45;102064.94;;;7.61;76.37
69574;BME280;62840;52.366;5.980;2023-02-20T05:14:11;102060.47;;;7.61;76.28
69574;BME280;62840;52.366;5.980;2023-02-20T05:16:37;102055.00;;;7.64;76.26
69574;BME280;62840;52.366;5.980;2023-02-20T05:19:04;102054.09;;;7.65;76.30
69574;BME280;62840;52.366;5.980;2023-02-20T05:21:30;102055.78;;;7.66;76.29
69574;BME280;62840;52.366;5.980;2023-02-20T05:23:56;102054.88;;;7.67;76.29
69574;BME280;62840;52.366;5.980;2023-02-20T05:26:21;102046.91;;;7.67;76.30
69574;BME280;62840;52.366;5.980;2023-02-20T05:28:50;102029.88;;;7.71;76.27
69574;BME280;62840;52.366;5.980;2023-02-20T05:31:15;102034.16;;;7.74;76.09
69574;BME280;62840;52.366;5.980;2023-02-20T05:33:41;102035.03;;;7.74;76.23
69574;BME280;62840;52.366;5.980;2023-02-20T05:36:07;102036.72;;;7.75;76.08
69574;BME280;62840;52.366;5.980;2023-02-20T05:38:33;102040.34;;;7.74;76.03
69574;BME280;62840;52.366;5.980;2023-02-20T05:40:59;102047.34;;;7.75;76.14
69574;BME280;62840;52.366;5.980;2023-02-20T05:43:25;102051.75;;;7.77;76.09
69574;BME280;62840;52.366;5.980;2023-02-20T05:45:53;102043.78;;;7.77;75.94
69574;BME280;62840;52.366;5.980;2023-02-20T05:48:19;102041.91;;;7.79;76.15
69574;BME280;62840;52.366;5.980;2023-02-20T05:50:45;102038.28;;;7.80;76.03
69574;BME280;62840;52.366;5.980;2023-02-20T05:53:10;102034.59;;;7.82;76.08
69574;BME280;62840;52.366;5.980;2023-02-20T05:55:36;102041.72;;;7.82;75.94
69574;BME280;62840;52.366;5.980;2023-02-20T05:58:02;102043.47;;;7.83;76.06
69574;BME280;62840;52.366;5.980;2023-02-20T06:00:28;102030.09;;;7.84;76.07
69574;BME280;62840;52.366;5.980;2023-02-20T06:02:56;102027.34;;;7.86;76.00
69574;BME280;62840;52.366;5.980;2023-02-20T06:05:21;102018.44;;;7.87;76.08
69574;BME280;62840;52.366;5.980;2023-02-20T06:07:47;102023.75;;;7.87;75.86
69574;BME280;62840;52.366;5.980;2023-02-20T06:10:14;102029.06;;;7.87;75.97
69574;BME280;62840;52.366;5.980;2023-02-20T06:12:42;102023.75;;;7.87;75.93
69574;BME280;62840;52.366;5.980;2023-02-20T06:15:08;102020.16;;;7.88;75.96
69574;BME280;62840;52.366;5.980;2023-02-20T06:17:34;102016.56;;;7.89;76.11
69574;BME280;62840;52.366;5.980;2023-02-20T06:20:03;102011.25;;;7.89;75.81
69574;BME280;62840;52.366;5.980;2023-02-20T06:22:29;102005.00;;;7.90;76.05
69574;BME280;62840;52.366;5.980;2023-02-20T06:24:55;102030.63;;;7.91;76.04
69574;BME280;62840;52.366;5.980;2023-02-20T06:27:20;102018.13;;;7.93;75.92
69574;BME280;62840;52.366;5.980;2023-02-20T06:29:46;102012.81;;;7.93;75.97
69574;BME280;62840;52.366;5.980;2023-02-20T06:32:12;102020.72;;;7.94;75.94
69574;BME280;62840;52.366;5.980;2023-02-20T06:34:38;102010.94;;;7.95;75.96
69574;BME280;62840;52.366;5.980;2023-02-20T06:37:07;102003.75;;;7.97;75.96
69574;BME280;62840;52.366;5.980;2023-02-20T06:39:32;102005.44;;;7.98;75.86
69574;BME280;62840;52.366;5.980;2023-02-20T06:41:58;101997.59;;;7.96;75.94
69574;BME280;62840;52.366;5.980;2023-02-20T06:44:24;101997.41;;;8.00;75.86
69574;BME280;62840;52.366;5.980;2023-02-20T06:46:50;102008.88;;;8.00;75.91
69574;BME280;62840;52.366;5.980;2023-02-20T06:49:15;101994.69;;;8.01;75.90
69574;BME280;62840;52.366;5.980;2023-02-20T06:51:41;102008.75;;;8.03;76.06
69574;BME280;62840;52.366;5.980;2023-02-20T06:54:10;102010.44;;;8.04;75.96
69574;BME280;62840;52.366;5.980;2023-02-20T06:56:37;102011.28;;;8.05;76.00
69574;BME280;62840;52.366;5.980;2023-02-20T06:59:05;102006.88;;;8.05;75.89
69574;BME280;62840;52.366;5.980;2023-02-20T07:01:37;102022.63;;;8.08;75.92
69574;BME280;62840;52.366;5.980;2023-02-20T07:04:04;102018.16;;;8.09;75.98
69574;BME280;62840;52.366;5.980;2023-02-20T07:06:39;102029.50;;;8.12;75.90
69574;BME280;62840;52.366;5.980;2023-02-20T07:09:04;102025.88;;;8.13;75.81
69574;BME280;62840;52.366;5.980;2023-02-20T07:11:33;102020.56;;;8.13;75.92
69574;BME280;62840;52.366;5.980;2023-02-20T07:13:59;102027.63;;;8.14;75.93
69574;BME280;62840;52.366;5.980;2023-02-20T07:16:24;102027.44;;;8.17;75.83
69574;BME280;62840;52.366;5.980;2023-02-20T07:18:50;102031.75;;;8.20;75.81
69574;BME280;62840;52.366;5.980;2023-02-20T07:21:16;102037.81;;;8.22;75.86
69574;BME280;62840;52.366;5.980;2023-02-20T07:23:43;102037.75;;;8.24;75.79
69574;BME280;62840;52.366;5.980;2023-02-20T07:26:16;102037.75;;;8.24;75.66
69574;BME280;62840;52.366;5.980;2023-02-20T07:28:45;102036.81;;;8.25;75.82
69574;BME280;62840;52.366;5.980;2023-02-20T07:31:11;102045.63;;;8.25;75.74
69574;BME280;62840;52.366;5.980;2023-02-20T07:33:37;102041.00;;;8.29;75.78
69574;BME280;62840;52.366;5.980;2023-02-20T07:36:03;102041.00;;;8.29;75.88
69574;BME280;62840;52.366;5.980;2023-02-20T07:38:30;102042.56;;;8.33;75.68
69574;BME280;62840;52.366;5.980;2023-02-20T07:40:56;102049.59;;;8.34;75.65
69574;BME280;62840;52.366;5.980;2023-02-20T07:43:22;102047.88;;;8.33;75.52
69574;BME280;62840;52.366;5.980;2023-02-20T07:45:50;102037.25;;;8.33;75.61
69574;BME280;62840;52.366;5.980;2023-02-20T07:48:16;102046.88;;;8.35;75.72
69574;BME280;62840;52.366;5.980;2023-02-20T07:50:41;102045.84;;;8.38;75.55
69574;BME280;62840;52.366;5.980;2023-02-20T07:53:08;102036.06;;;8.38;75.53
69574;BME280;62840;52.366;5.980;2023-02-20T07:55:38;102038.63;;;8.40;75.62
69574;BME280;62840;52.366;5.980;2023-02-20T07:58:04;102037.59;;;8.43;75.75
69574;BME280;62840;52.366;5.980;2023-02-20T08:00:30;102038.47;;;8.43;75.70
69574;BME280;62840;52.366;5.980;2023-02-20T08:02:58;102034.88;;;8.44;75.49
69574;BME280;62840;52.366;5.980;2023-02-20T08:05:25;102033.00;;;8.46;75.61
69574;BME280;62840;52.366;5.980;2023-02-20T08:07:51;102029.38;;;8.47;75.62
69574;BME280;62840;52.366;5.980;2023-02-20T08:10:20;102023.13;;;8.48;75.55
69574;BME280;62840;52.366;5.980;2023-02-20T08:12:49;102028.28;;;8.51;75.56
69574;BME280;62840;52.366;5.980;2023-02-20T08:15:17;102016.69;;;8.52;75.51
69574;BME280;62840;52.366;5.980;2023-02-20T08:17:44;102027.16;;;8.55;75.62
69574;BME280;62840;52.366;5.980;2023-02-20T08:20:13;102015.56;;;8.56;75.70
69574;BME280;62840;52.366;5.980;2023-02-20T08:22:40;102013.81;;;8.57;75.53
69574;BME280;62840;52.366;5.980;2023-02-20T08:25:06;102003.84;;;8.61;75.67
69574;BME280;62840;52.366;5.980;2023-02-20T08:27:32;102005.56;;;8.62;75.38
69574;BME280;62840;52.366;5.980;2023-02-20T08:29:58;102000.91;;;8.65;75.43
69574;BME280;62840;52.366;5.980;2023-02-20T08:32:24;102007.97;;;8.66;75.40
69574;BME280;62840;52.366;5.980;2023-02-20T08:34:49;102008.63;;;8.70;75.35
69574;BME280;62840;52.366;5.980;2023-02-20T08:37:18;102012.06;;;8.72;75.51
69574;BME280;62840;52.366;5.980;2023-02-20T08:39:44;102023.47;;;8.74;75.32
69574;BME280;62840;52.366;5.980;2023-02-20T08:42:14;102018.94;;;8.76;75.38
69574;BME280;62840;52.366;5.980;2023-02-20T08:44:40;102013.44;;;8.79;75.36
69574;BME280;62840;52.366;5.980;2023-02-20T08:47:05;102020.31;;;8.83;75.16
69574;BME280;62840;52.366;5.980;2023-02-20T08:49:31;102007.78;;;8.85;75.30
69574;BME280;62840;52.366;5.980;2023-02-20T08:51:57;102018.22;;;8.88;75.23
69574;BME280;62840;52.366;5.980;2023-02-20T08:54:25;102013.69;;;8.90;75.43
69574;BME280;62840;52.366;5.980;2023-02-20T08:56:51;102009.13;;;8.92;75.22
69574;BME280;62840;52.366;5.980;2023-02-20T08:59:17;102008.97;;;8.95;75.28
69574;BME280;62840;52.366;5.980;2023-02-20T09:01:43;102009.75;;;8.97;75.23
69574;BME280;62840;52.366;5.980;2023-02-20T09:04:09;102010.50;;;8.99;75.41
69574;BME280;62840;52.366;5.980;2023-02-20T09:06:35;102012.03;;;9.04;75.25
69574;BME280;62840;52.366;5.980;2023-02-20T09:09:02;102019.94;;;9.05;75.16
69574;BME280;62840;52.366;5.980;2023-02-20T09:11:31;102017.22;;;9.07;75.08
69574;BME280;62840;52.366;5.980;2023-02-20T09:13:56;102025.97;;;9.09;75.15
69574;BME280;62840;52.366;5.980;2023-02-20T09:16:24;102027.84;;;9.07;74.97
69574;BME280;62840;52.366;5.980;2023-02-20T09:18:50;102028.63;;;9.09;75.21
69574;BME280;62840;52.366;5.980;2023-02-20T09:21:18;102031.28;;;9.09;75.19
69574;BME280;62840;52.366;5.980;2023-02-20T09:23:44;102030.31;;;9.10;75.17
69574;BME280;62840;52.366;5.980;2023-02-20T09:26:10;102034.69;;;9.11;75.07
69574;BME280;62840;52.366;5.980;2023-02-20T09:28:39;102033.84;;;9.10;75.14
69574;BME280;62840;52.366;5.980;2023-02-20T09:31:05;102026.81;;;9.09;75.43
69574;BME280;62840;52.366;5.980;2023-02-20T09:33:31;102017.03;;;9.10;75.28
69574;BME280;62840;52.366;5.980;2023-02-20T09:35:56;102011.69;;;9.10;75.10
69574;BME280;62840;52.366;5.980;2023-02-20T09:38:23;101997.44;;;9.11;75.00
69574;BME280;62840;52.366;5.980;2023-02-20T09:40:53;102022.16;;;9.13;75.09
69574;BME280;62840;52.366;5.980;2023-02-20T09:43:28;102020.25;;;9.15;75.04
69574;BME280;62840;52.366;5.980;2023-02-20T09:46:14;102035.31;;;9.16;75.22
69574;BME280;62840;52.366;5.980;2023-02-20T09:48:50;102023.69;;;9.17;75.13
69574;BME280;62840;52.366;5.980;2023-02-20T09:51:29;102022.00;;;9.16;75.16
69574;BME280;62840;52.366;5.980;2023-02-20T09:54:01;102020.97;;;9.18;75.28
69574;BME280;62840;52.366;5.980;2023-02-20T09:56:34;102030.56;;;9.21;75.08
69574;BME280;62840;52.366;5.980;2023-02-20T09:59:11;102030.56;;;9.21;75.15
69574;BME280;62840;52.366;5.980;2023-02-20T10:01:45;102037.59;;;9.22;75.08
69574;BME280;62840;52.366;5.980;2023-02-20T10:04:21;102042.06;;;9.21;75.02
69574;BME280;62840;52.366;5.980;2023-02-20T10:06:53;102030.50;;;9.23;74.91
69574;BME280;62840;52.366;5.980;2023-02-20T10:09:28;102035.03;;;9.20;74.86
69574;BME280;62840;52.366;5.980;2023-02-20T10:12:03;102013.75;;;9.20;74.68
69574;BME280;62840;52.366;5.980;2023-02-20T10:14:51;102031.53;;;9.20;75.09
69574;BME280;62840;52.366;5.980;2023-02-20T10:17:34;102022.75;;;9.18;75.00
69574;BME280;62840;52.366;5.980;2023-02-20T10:20:10;102029.03;;;9.17;74.92
69574;BME280;62840;52.366;5.980;2023-02-20T10:22:48;102030.75;;;9.18;75.00
69574;BME280;62840;52.366;5.980;2023-02-20T10:25:25;102018.97;;;9.22;75.11
69574;BME280;62840;52.366;5.980;2023-02-20T10:27:59;102002.06;;;9.23;75.03
69574;BME280;62840;52.366;5.980;2023-02-20T10:30:35;101987.78;;;9.24;75.04
69574;BME280;62840;52.366;5.980;2023-02-20T10:33:15;102008.91;;;9.27;75.15
69574;BME280;62840;52.366;5.980;2023-02-20T10:35:52;102005.28;;;9.28;74.99
69574;BME280;62840;52.366;5.980;2023-02-20T10:38:24;101999.97;;;9.28;75.14
69574;BME280;62840;52.366;5.980;2023-02-20T10:40:58;101978.63;;;9.30;74.92
69574;BME280;62840;52.366;5.980;2023-02-20T10:43:35;101980.25;;;9.32;74.85
69574;BME280;62840;52.366;5.980;2023-02-20T10:46:13;101983.69;;;9.34;74.92
69574;BME280;62840;52.366;5.980;2023-02-20T10:48:45;102007.56;;;9.36;74.78
69574;BME280;62840;52.366;5.980;2023-02-20T10:51:15;102003.09;;;9.36;75.15
69574;BME280;62840;52.366;5.980;2023-02-20T10:53:49;102011.84;;;9.38;74.85
69574;BME280;62840;52.366;5.980;2023-02-20T10:56:25;102024.19;;;9.39;74.74
69574;BME280;62840;52.366;5.980;2023-02-20T10:59:01;102030.47;;;9.38;74.66
69574;BME280;62840;52.366;5.980;2023-02-20T11:01:36;102020.75;;;9.37;74.76
69574;BME280;62840;52.366;5.980;2023-02-20T11:04:09;102024.19;;;9.39;74.78
69574;BME280;62840;52.366;5.980;2023-02-20T11:06:40;102036.56;;;9.40;74.67
69574;BME280;62840;52.366;5.980;2023-02-20T11:09:09;102034.69;;;9.43;74.80
69574;BME280;62840;52.366;5.980;2023-02-20T11:11:36;102029.25;;;9.44;74.71
69574;BME280;62840;52.366;5.980;2023-02-20T11:14:10;102027.44;;;9.45;74.62
69574;BME280;62840;52.366;5.980;2023-02-20T11:16:43;102047.03;;;9.44;74.77
69574;BME280;62840;52.366;5.980;2023-02-20T11:19:19;102039.81;;;9.46;74.64
69574;BME280;62840;52.366;5.980;2023-02-20T11:21:47;102032.59;;;9.48;74.46
69574;BME280;62840;52.366;5.980;2023-02-20T11:24:26;102019.38;;;9.46;74.50
69574;BME280;62840;52.366;5.980;2023-02-20T11:26:59;102014.03;;;9.46;74.54
69574;BME280;62840;52.366;5.980;2023-02-20T11:29:36;102029.16;;;9.46;74.74
69574;BME280;62840;52.366;5.980;2023-02-20T11:32:32;102032.59;;;9.48;74.55
69574;BME280;62840;52.366;5.980;2023-02-20T11:35:23;102027.28;;;9.48;74.71
69574;BME280;62840;52.366;5.980;2023-02-20T11:38:17;102011.28;;;9.48;74.67
69574;BME280;62840;52.366;5.980;2023-02-20T11:41:05;102003.22;;;9.49;74.68
69574;BME280;62840;52.366;5.980;2023-02-20T11:43:39;101997.78;;;9.51;74.62
69574;BME280;62840;52.366;5.980;2023-02-20T11:46:08;102000.28;;;9.54;74.72
69574;BME280;62840;52.366;5.980;2023-02-20T11:48:56;101993.03;;;9.56;74.83
69574;BME280;62840;52.366;5.980;2023-02-20T11:51:32;101994.84;;;9.55;74.60
69574;BME280;62840;52.366;5.980;2023-02-20T11:54:12;101989.44;;;9.57;74.57
69574;BME280;62840;52.366;5.980;2023-02-20T11:56:53;101996.47;;;9.58;74.66
69574;BME280;62840;52.366;5.980;2023-02-20T11:59:28;101983.84;;;9.61;74.52
69574;BME280;62840;52.366;5.980;2023-02-20T12:02:19;101995.34;;;9.62;74.55
69574;BME280;62840;52.366;5.980;2023-02-20T12:05:09;101984.53;;;9.65;74.37
69574;BME280;62840;52.366;5.980;2023-02-20T12:07:42;101991.63;;;9.65;74.55
69574;BME280;62840;52.366;5.980;2023-02-20T12:10:19;101984.53;;;9.65;74.21
69574;BME280;62840;52.366;5.980;2023-02-20T12:12:49;101997.84;;;9.65;74.31
69574;BME280;62840;52.366;5.980;2023-02-20T12:15:18;101994.22;;;9.66;74.35
69574;BME280;62840;52.366;5.980;2023-02-20T12:17:58;101975.38;;;9.69;74.46
69574;BME280;62840;52.366;5.980;2023-02-20T12:20:54;101978.03;;;9.69;74.29
69574;BME280;62840;52.366;5.980;2023-02-20T12:23:32;101981.66;;;9.68;74.21
69574;BME280;62840;52.366;5.980;2023-02-20T12:26:13;101978.03;;;9.69;74.35
69574;BME280;62840;52.366;5.980;2023-02-20T12:29:06;101987.00;;;9.68;74.37
69574;BME280;62840;52.366;5.980;2023-02-20T12:31:50;101995.91;;;9.67;74.44
69574;BME280;62840;52.366;5.980;2023-02-20T12:34:38;101992.50;;;9.65;74.26
69574;BME280;62840;52.366;5.980;2023-02-20T12:37:28;102001.44;;;9.64;74.32
69574;BME280;62840;52.366;5.980;2023-02-20T12:40:19;102000.59;;;9.63;74.41
69574;BME280;62840;52.366;5.980;2023-02-20T12:43:00;102000.59;;;9.63;74.55
69574;BME280;62840;52.366;5.980;2023-02-20T12:45:41;101996.09;;;9.64;74.39
69574;BME280;62840;52.366;5.980;2023-02-20T12:48:25;101981.09;;;9.63;74.32
69574;BME280;62840;52.366;5.980;2023-02-20T12:51:16;101974.78;;;9.64;74.43
69574;BME280;62840;52.366;5.980;2023-02-20T12:54:03;101982.78;;;9.64;74.18
69574;BME280;62840;52.366;5.980;2023-02-20T12:56:48;101979.19;;;9.65;74.33
69574;BME280;62840;52.366;5.980;2023-02-20T12:59:30;101981.84;;;9.65;74.32
69574;BME280;62840;52.366;5.980;2023-02-20T13:02:14;101981.84;;;9.65;74.38
69574;BME280;62840;52.366;5.980;2023-02-20T13:04:52;101967.78;;;9.63;74.19
69574;BME280;62840;52.366;5.980;2023-02-20T13:07:25;101966.72;;;9.66;74.40
69574;BME280;62840;52.366;5.980;2023-02-20T13:10:03;101957.88;;;9.65;74.26
69574;BME280;62840;52.366;5.980;2023-02-20T13:12:37;101962.25;;;9.66;74.31
69574;BME280;62840;52.366;5.980;2023-02-20T13:15:24;101956.91;;;9.66;74.35
69574;BME280;62840;52.366;5.980;2023-02-20T13:18:05;101953.28;;;9.67;74.27
69574;BME280;62840;52.366;5.980;2023-02-20T13:20:41;101950.53;;;9.69;74.43
69574;BME280;62840;52.366;5.980;2023-02-20T13:23:27;101963.41;;;9.76;74.53
69574;BME280;62840;52.366;5.980;2023-02-20T13:25:57;101972.06;;;9.80;74.20